createdAt,value
2022-11-16T00:00:12.719Z,10.99
2022-11-16T00:02:41.254Z,10.22
2022-11-16T00:05:10.120Z,10.40
2022-11-16T00:07:38.601Z,10.63
2022-11-16T00:10:09.421Z,9.92
2022-11-16T00:12:37.800Z,9.94
2022-11-16T00:15:07.289Z,10.27
2022-11-16T00:17:35.640Z,10.33
2022-11-16T00:20:04.053Z,10.73
2022-11-16T00:22:32.439Z,10.15
2022-11-16T00:25:00.834Z,10.43
2022-11-16T00:27:30.567Z,10.08
2022-11-16T00:29:58.880Z,9.73
2022-11-16T00:32:27.307Z,9.79
2022-11-16T00:34:55.659Z,9.36
2022-11-16T00:37:24.075Z,9.78
2022-11-16T00:39:52.365Z,10.29
2022-11-16T00:42:20.803Z,10.64
2022-11-16T00:44:50.458Z,10.68
2022-11-16T00:47:18.786Z,10.23
2022-11-16T00:49:47.094Z,10.26
2022-11-16T00:52:15.432Z,10.77
2022-11-16T00:54:43.786Z,11.08
2022-11-16T00:57:12.143Z,10.27
2022-11-16T00:59:40.490Z,10.73
2022-11-16T01:02:10.170Z,10.84
2022-11-16T01:04:38.416Z,10.98
2022-11-16T01:07:06.752Z,10.55
2022-11-16T01:09:35.183Z,11.05
2022-11-16T01:12:12.598Z,11.65
2022-11-16T01:14:43.333Z,11.49
2022-11-16T01:17:13.023Z,10.82
2022-11-16T01:19:41.857Z,11.14
2022-11-16T01:22:10.331Z,11.09
2022-11-16T01:24:38.708Z,11.11
2022-11-16T01:27:07.045Z,11.14
2022-11-16T01:29:35.450Z,10.71
2022-11-16T01:32:03.929Z,10.39
2022-11-16T01:34:33.710Z,10.24
2022-11-16T01:37:02.419Z,10.29
2022-11-16T01:39:30.804Z,10.89
2022-11-16T01:41:59.109Z,10.89
2022-11-16T01:45:07.060Z,11.15
2022-11-16T01:47:35.711Z,11.11
2022-11-16T01:50:09.669Z,10.98
2022-11-16T01:52:42.508Z,11.16
2022-11-16T01:55:11.457Z,10.56
2022-11-16T01:57:42.967Z,10.79
2022-11-16T02:00:13.419Z,11.00
2022-11-16T02:02:42.171Z,10.83
2022-11-16T02:05:12.425Z,10.62
2022-11-16T02:08:10.878Z,10.83
2022-11-16T02:10:51.633Z,10.68
2022-11-16T02:13:29.619Z,11.16
2022-11-16T02:16:03.305Z,10.47
2022-11-16T02:18:37.023Z,10.66
2022-11-16T02:21:13.200Z,11.03
2022-11-16T02:24:06.764Z,11.29
2022-11-16T02:27:02.826Z,10.59
2022-11-16T02:29:35.332Z,11.81
2022-11-16T02:32:06.505Z,11.65
2022-11-16T02:34:38.106Z,10.97
2022-11-16T02:37:08.513Z,11.33
2022-11-16T02:39:38.179Z,11.45
2022-11-16T02:42:10.771Z,11.88
2022-11-16T02:44:42.918Z,11.82
2022-11-16T02:47:14.823Z,12.11
2022-11-16T02:49:46.519Z,12.15
2022-11-16T02:52:15.591Z,11.89
2022-11-16T02:54:43.952Z,11.46
2022-11-16T02:57:34.407Z,11.58
2022-11-16T03:00:07.652Z,11.44
2022-11-16T03:02:42.768Z,11.29
2022-11-16T03:05:14.848Z,11.40
2022-11-16T03:07:47.263Z,11.25
2022-11-16T03:10:37.273Z,10.25
2022-11-16T03:13:07.027Z,10.42
2022-11-16T03:15:37.853Z,10.44
2022-11-16T03:18:07.097Z,10.98
2022-11-16T03:20:36.619Z,10.43
2022-11-16T03:23:07.672Z,10.76
2022-11-16T03:25:40.929Z,10.86
2022-11-16T03:28:12.785Z,10.55
2022-11-16T03:30:45.406Z,11.15
2022-11-16T03:33:18.076Z,10.64
2022-11-16T03:35:50.685Z,10.52
2022-11-16T03:38:20.324Z,11.00
2022-11-16T03:40:48.954Z,11.74
2022-11-16T03:43:18.845Z,11.36
2022-11-16T03:45:48.667Z,12.33
2022-11-16T03:48:17.104Z,12.45
2022-11-16T03:50:45.640Z,12.32
2022-11-16T03:53:13.970Z,12.79
2022-11-16T03:55:47.047Z,12.27
2022-11-16T03:58:18.682Z,11.83
2022-11-16T04:00:48.554Z,12.08
2022-11-16T04:03:16.904Z,11.36
2022-11-16T04:06:02.813Z,10.71
2022-11-16T04:08:48.814Z,11.00
2022-11-16T04:11:37.642Z,10.90
2022-11-16T04:14:23.746Z,12.16
2022-11-16T04:17:11.240Z,12.62
2022-11-16T04:19:58.304Z,11.91
2022-11-16T04:22:42.862Z,11.23
2022-11-16T04:25:14.716Z,11.89
2022-11-16T04:28:00.658Z,11.37
2022-11-16T04:30:49.431Z,11.14
2022-11-16T04:33:36.753Z,11.78
2022-11-16T04:36:22.627Z,11.44
2022-11-16T04:38:51.036Z,11.53
2022-11-16T04:41:38.278Z,11.35
2022-11-16T04:44:06.995Z,11.64
2022-11-16T04:47:07.549Z,12.39
2022-11-16T04:49:37.277Z,12.91
2022-11-16T04:52:05.871Z,12.96
2022-11-16T04:54:34.157Z,12.43
2022-11-16T04:57:02.449Z,12.30
2022-11-16T04:59:30.792Z,12.51
2022-11-16T05:02:11.174Z,12.83
2022-11-16T05:04:42.185Z,13.16
2022-11-16T05:07:12.491Z,13.34
2022-11-16T05:09:42.997Z,13.39
2022-11-16T05:12:12.511Z,13.63
2022-11-16T05:14:41.134Z,13.71
2022-11-16T05:17:09.972Z,13.48
2022-11-16T05:19:55.927Z,13.63
2022-11-16T05:22:25.767Z,13.80
2022-11-16T05:24:54.238Z,13.67
2022-11-16T05:27:24.012Z,13.10
2022-11-16T05:29:52.568Z,13.23
2022-11-16T05:32:22.206Z,12.83
2022-11-16T05:34:50.548Z,13.09
2022-11-16T05:37:21.163Z,13.36
2022-11-16T05:39:50.657Z,13.79
2022-11-16T05:42:18.933Z,12.79
2022-11-16T05:44:47.239Z,13.06
2022-11-16T05:47:15.735Z,13.12
2022-11-16T05:49:44.071Z,12.86
2022-11-16T05:52:12.351Z,13.47
2022-11-16T05:54:40.719Z,12.80
2022-11-16T05:57:10.461Z,13.42
2022-11-16T05:59:38.791Z,13.47
2022-11-16T06:02:07.091Z,12.99
2022-11-16T06:04:35.388Z,13.15
2022-11-16T06:07:03.668Z,13.04
2022-11-16T06:09:32.105Z,13.20
2022-11-16T06:12:00.459Z,13.13
2022-11-16T06:14:30.195Z,13.36
2022-11-16T06:16:58.519Z,13.46
2022-11-16T06:19:32.043Z,13.56
2022-11-16T06:22:00.771Z,13.31
2022-11-16T06:24:29.043Z,13.50
2022-11-16T06:26:57.327Z,13.11
2022-11-16T06:29:25.713Z,12.53
2022-11-16T06:31:55.462Z,11.69
2022-11-16T06:34:24.696Z,11.58
2022-11-16T06:36:52.997Z,11.18
2022-11-16T06:39:21.443Z,12.49
2022-11-16T06:41:49.766Z,11.52
2022-11-16T06:44:18.100Z,11.75
2022-11-16T06:46:46.494Z,11.71
2022-11-16T06:49:16.195Z,11.03
2022-11-16T06:51:44.531Z,11.50
2022-11-16T06:54:12.903Z,12.09
2022-11-16T06:56:41.249Z,11.32
2022-11-16T06:59:09.572Z,11.28
2022-11-16T07:01:37.935Z,11.41
2022-11-16T07:04:06.294Z,10.96
2022-11-16T07:06:36.063Z,11.28
2022-11-16T07:09:06.805Z,12.73
2022-11-16T07:11:35.191Z,13.09
2022-11-16T07:14:04.062Z,13.16
2022-11-16T07:16:32.488Z,13.16
2022-11-16T07:19:01.054Z,12.14
2022-11-16T07:21:29.365Z,12.09
2022-11-16T07:23:59.072Z,12.48
2022-11-16T07:26:28.891Z,11.94
2022-11-16T07:28:57.205Z,12.33
2022-11-16T07:31:25.757Z,12.44
2022-11-16T07:33:54.095Z,11.92
2022-11-16T07:36:22.687Z,12.61
2022-11-16T07:38:51.166Z,13.02
2022-11-16T07:41:21.520Z,12.91
2022-11-16T07:43:53.044Z,12.42
2022-11-16T07:46:47.466Z,12.63
2022-11-16T07:49:16.016Z,13.16
2022-11-16T07:51:45.722Z,12.42
2022-11-16T07:54:14.310Z,12.77
2022-11-16T07:56:43.974Z,12.52
2022-11-16T07:59:12.434Z,11.93
2022-11-16T08:01:40.866Z,13.10
2022-11-16T08:04:09.239Z,12.63
2022-11-16T08:06:37.543Z,12.99
2022-11-16T08:09:05.879Z,12.71
2022-11-16T08:11:34.228Z,12.93
2022-11-16T08:14:03.936Z,13.17
2022-11-16T08:16:33.399Z,12.97
2022-11-16T08:19:02.395Z,12.75
2022-11-16T08:21:30.759Z,13.69
2022-11-16T08:23:59.246Z,14.44
2022-11-16T08:26:27.732Z,14.53
2022-11-16T08:28:57.260Z,13.65
2022-11-16T08:31:28.783Z,13.25
2022-11-16T08:33:57.669Z,13.94
2022-11-16T08:36:26.132Z,14.12
2022-11-16T08:38:55.025Z,13.85
2022-11-16T08:41:23.399Z,13.65
2022-11-16T08:43:53.458Z,13.30
2022-11-16T08:46:22.359Z,13.76
2022-11-16T08:48:56.196Z,14.37
2022-11-16T08:51:25.343Z,13.47
2022-11-16T08:53:56.914Z,13.80
2022-11-16T08:56:27.123Z,13.47
2022-11-16T08:58:58.802Z,14.43
2022-11-16T09:01:28.788Z,14.15
2022-11-16T09:03:58.605Z,13.64
2022-11-16T09:06:27.604Z,14.01
2022-11-16T09:08:56.017Z,14.33
2022-11-16T09:11:25.613Z,15.05
2022-11-16T09:13:55.628Z,14.11
2022-11-16T09:16:24.882Z,14.62
2022-11-16T09:18:53.375Z,13.90
2022-11-16T09:21:24.906Z,15.10
2022-11-16T09:23:54.582Z,15.17
2022-11-16T09:26:23.332Z,14.63
2022-11-16T09:28:56.828Z,15.35
2022-11-16T09:31:27.463Z,15.61
2022-11-16T09:33:58.433Z,15.89
2022-11-16T09:36:29.034Z,16.09
2022-11-16T09:41:55.969Z,15.73
2022-11-16T09:44:59.598Z,16.30
2022-11-16T09:47:40.446Z,16.03
2022-11-16T09:50:31.313Z,16.07
2022-11-16T09:53:08.895Z,16.54
2022-11-16T09:55:40.851Z,16.61
2022-11-16T09:58:14.254Z,16.34
2022-11-16T10:00:45.633Z,17.05
2022-11-16T10:03:14.947Z,16.14
2022-11-16T10:05:47.095Z,16.81
2022-11-16T10:08:26.488Z,17.43
2022-11-16T10:11:02.608Z,17.48
2022-11-16T10:13:42.590Z,17.26
2022-11-16T10:16:15.475Z,16.90
2022-11-16T10:18:50.009Z,17.32
2022-11-16T10:21:38.722Z,16.69
2022-11-16T10:24:25.534Z,17.35
2022-11-16T10:27:01.702Z,17.70
2022-11-16T10:29:43.415Z,17.78
2022-11-16T10:32:18.924Z,17.17
2022-11-16T10:34:52.293Z,17.61
2022-11-16T10:37:21.510Z,17.51
2022-11-16T10:39:54.229Z,16.80
2022-11-16T10:42:24.914Z,17.22
2022-11-16T10:44:57.460Z,17.66
2022-11-16T10:47:33.582Z,17.05
2022-11-16T10:50:05.559Z,16.41
2022-11-16T10:52:33.907Z,16.37
2022-11-16T10:55:03.678Z,16.88
2022-11-16T10:57:54.580Z,15.95
2022-11-16T11:00:35.232Z,16.53
2022-11-16T11:03:03.472Z,16.79
2022-11-16T11:05:31.944Z,16.27
2022-11-16T11:08:05.796Z,16.29
2022-11-16T11:10:37.076Z,15.92
2022-11-16T11:13:20.771Z,16.02
2022-11-16T11:15:51.292Z,15.89
2022-11-16T11:18:26.439Z,15.84
2022-11-16T11:21:07.361Z,15.92
2022-11-16T11:23:46.934Z,15.91
2022-11-16T11:26:36.156Z,15.80
2022-11-16T11:29:16.789Z,15.88
2022-11-16T11:31:47.312Z,16.13
2022-11-16T11:34:16.925Z,16.27
2022-11-16T11:36:48.056Z,16.17
2022-11-16T11:39:31.875Z,16.36
2022-11-16T11:42:21.690Z,16.26
2022-11-16T11:44:54.942Z,16.74
2022-11-16T11:47:57.220Z,16.94
2022-11-16T11:50:28.814Z,16.84
2022-11-16T11:53:03.405Z,16.75
2022-11-16T11:55:31.928Z,16.66
2022-11-16T11:58:03.122Z,17.02
2022-11-16T12:00:39.119Z,17.16
2022-11-16T12:03:28.103Z,17.26
2022-11-16T12:06:05.901Z,17.24
2022-11-16T12:08:57.144Z,17.07
2022-11-16T12:11:30.683Z,17.11
2022-11-16T12:14:11.873Z,17.59
2022-11-16T12:16:45.923Z,17.72
2022-11-16T12:19:27.148Z,17.51
2022-11-16T12:22:05.612Z,17.92
2022-11-16T12:24:50.600Z,17.76
2022-11-16T12:27:27.127Z,18.04
2022-11-16T12:30:02.828Z,18.32
2022-11-16T12:32:52.135Z,18.41
2022-11-16T12:35:32.059Z,18.56
2022-11-16T12:38:08.715Z,18.60
2022-11-16T12:40:45.263Z,17.90
2022-11-16T12:43:18.532Z,18.12
2022-11-16T12:46:04.679Z,18.14
2022-11-16T12:48:50.620Z,18.58
2022-11-16T12:51:31.735Z,18.74
2022-11-16T12:54:22.987Z,18.86
2022-11-16T12:56:55.435Z,18.84
2022-11-16T12:59:31.504Z,18.55
2022-11-16T13:02:06.244Z,18.88
2022-11-16T13:04:37.286Z,18.84
2022-11-16T13:07:11.137Z,18.94
2022-11-16T13:09:41.988Z,19.21
2022-11-16T13:12:15.379Z,19.36
2022-11-16T13:14:46.083Z,19.43
2022-11-16T13:17:19.158Z,19.64
2022-11-16T13:20:02.614Z,19.63
2022-11-16T13:22:32.938Z,19.56
2022-11-16T13:25:05.144Z,19.68
2022-11-16T13:27:38.099Z,20.03
2022-11-16T13:30:14.818Z,20.17
2022-11-16T13:32:56.730Z,20.30
2022-11-16T13:35:25.224Z,20.14
2022-11-16T13:37:53.572Z,19.53
2022-11-16T13:40:28.268Z,20.02
2022-11-16T13:43:19.059Z,18.62
2022-11-16T13:45:58.822Z,19.42
2022-11-16T13:48:33.711Z,19.57
2022-11-16T13:51:03.967Z,19.64
2022-11-16T13:54:42.735Z,19.68
2022-11-16T13:56:28.560Z,19.77
2022-11-16T13:58:58.602Z,19.57
2022-11-16T14:01:27.917Z,20.17
2022-11-16T14:04:39.667Z,20.73
2022-11-16T14:07:29.658Z,20.73
2022-11-16T14:09:58.049Z,20.81
2022-11-16T14:12:56.168Z,20.32
2022-11-16T14:15:35.329Z,20.66
2022-11-16T14:18:31.695Z,21.02
2022-11-16T14:21:04.259Z,20.65
2022-11-16T14:23:46.615Z,19.96
2022-11-16T14:26:21.148Z,20.71
2022-11-16T14:29:06.346Z,20.43
2022-11-16T14:31:49.023Z,19.59
2022-11-16T14:34:19.769Z,19.78
2022-11-16T14:36:50.506Z,19.71
2022-11-16T14:39:27.830Z,19.25
2022-11-16T14:41:58.199Z,19.67
2022-11-16T14:44:29.957Z,19.41
2022-11-16T14:46:58.583Z,18.84
2022-11-16T14:49:28.036Z,19.08
2022-11-16T14:52:00.428Z,18.96
2022-11-16T14:54:34.891Z,18.93
2022-11-16T14:57:04.633Z,19.40
2022-11-16T14:59:33.445Z,19.14
2022-11-16T15:02:05.804Z,19.02
2022-11-16T15:04:34.180Z,19.38
2022-11-16T15:07:05.461Z,19.46
2022-11-16T15:09:36.097Z,19.18
2022-11-16T15:12:22.165Z,19.23
2022-11-16T15:14:51.858Z,19.17
2022-11-16T15:17:27.194Z,19.26
2022-11-16T15:20:00.308Z,19.15
2022-11-16T15:22:32.081Z,18.94
2022-11-16T15:25:01.916Z,18.85
2022-11-16T15:27:36.208Z,18.79
2022-11-16T15:30:14.892Z,18.70
2022-11-16T15:32:44.392Z,18.64
2022-11-16T15:35:18.986Z,18.69
2022-11-16T15:37:48.716Z,18.38
2022-11-16T15:40:17.225Z,18.37
2022-11-16T15:42:45.680Z,18.25
2022-11-16T15:45:20.047Z,18.17
2022-11-16T15:47:48.777Z,18.03
2022-11-16T15:50:19.271Z,17.91
2022-11-16T15:52:52.739Z,17.79
2022-11-16T15:55:23.767Z,17.69
2022-11-16T15:58:00.858Z,17.63
2022-11-16T16:00:30.141Z,17.45
2022-11-16T16:03:07.340Z,17.44
2022-11-16T16:05:40.814Z,17.29
2022-11-16T16:08:30.250Z,17.22
2022-11-16T16:11:00.460Z,16.95
2022-11-16T16:13:32.581Z,16.82
2022-11-16T16:16:24.965Z,16.64
2022-11-16T16:18:53.757Z,16.31
2022-11-16T16:21:22.784Z,16.18
2022-11-16T16:23:53.805Z,16.16
2022-11-16T16:26:23.062Z,15.94
2022-11-16T16:28:51.627Z,15.87
2022-11-16T16:31:20.978Z,15.71
2022-11-16T16:33:49.482Z,15.57
2022-11-16T16:36:17.786Z,15.53
2022-11-16T16:38:46.134Z,15.51
2022-11-16T16:41:23.976Z,15.58
2022-11-16T16:43:53.921Z,15.47
2022-11-16T16:46:23.683Z,15.42
2022-11-16T16:48:55.851Z,15.38
2022-11-16T16:51:26.581Z,15.25
2022-11-16T16:53:55.628Z,15.14
2022-11-16T16:56:29.421Z,15.11
2022-11-16T16:58:58.566Z,14.94
2022-11-16T17:01:31.956Z,14.87
2022-11-16T17:04:00.325Z,14.76
2022-11-16T17:06:30.717Z,14.69
2022-11-16T17:08:59.092Z,14.60
2022-11-16T17:11:29.317Z,14.51
2022-11-16T17:13:57.691Z,14.39
2022-11-16T17:16:26.157Z,14.31
2022-11-16T17:18:56.009Z,14.34
2022-11-16T17:21:24.420Z,14.33
2022-11-16T17:23:52.731Z,14.34
2022-11-16T17:26:21.055Z,14.37
2022-11-16T17:28:50.778Z,14.37
2022-11-16T17:31:19.131Z,14.17
2022-11-16T17:33:47.436Z,14.01
2022-11-16T17:36:16.249Z,14.04
2022-11-16T17:38:45.191Z,14.02
2022-11-16T17:41:15.351Z,14.00
2022-11-16T17:43:45.531Z,14.00
2022-11-16T17:46:16.560Z,14.04
2022-11-16T17:48:46.215Z,13.95
2022-11-16T17:51:15.846Z,13.97
2022-11-16T17:53:44.790Z,13.97
2022-11-16T17:56:14.697Z,14.06
2022-11-16T17:58:45.059Z,13.97
2022-11-16T18:01:13.798Z,13.88
2022-11-16T18:03:43.547Z,13.98
2022-11-16T18:06:13.706Z,13.96
2022-11-16T18:08:43.593Z,13.96
2022-11-16T18:11:13.590Z,13.97
2022-11-16T18:13:42.302Z,13.93
2022-11-16T18:16:12.819Z,13.96
2022-11-16T18:18:41.544Z,13.92
2022-11-16T18:21:15.844Z,13.92
2022-11-16T18:23:47.276Z,13.81
2022-11-16T18:26:17.470Z,13.88
2022-11-16T18:28:46.102Z,13.74
2022-11-16T18:31:16.890Z,13.71
2022-11-16T18:33:45.657Z,13.66
2022-11-16T18:36:15.479Z,13.61
2022-11-16T18:38:43.784Z,13.42
2022-11-16T18:41:17.343Z,13.42
2022-11-16T18:43:49.823Z,13.27
2022-11-16T18:46:18.499Z,13.06
2022-11-16T18:48:46.904Z,13.14
2022-11-16T18:51:17.351Z,13.15
2022-11-16T18:53:45.975Z,13.03
2022-11-16T18:56:14.742Z,12.97
2022-11-16T18:58:52.330Z,12.87
2022-11-16T19:01:23.552Z,12.85
2022-11-16T19:03:52.219Z,12.78
2022-11-16T19:06:22.456Z,12.73
2022-11-16T19:08:56.365Z,12.71
2022-11-16T19:11:25.812Z,12.62
2022-11-16T19:13:56.013Z,12.58
2022-11-16T19:16:25.292Z,12.48
2022-11-16T19:18:54.256Z,12.40
2022-11-16T19:21:25.445Z,12.45
2022-11-16T19:23:55.250Z,12.39
2022-11-16T19:26:25.414Z,12.41
2022-11-16T19:28:54.335Z,12.49
2022-11-16T19:31:23.567Z,12.55
2022-11-16T19:33:54.855Z,12.54
2022-11-16T19:36:25.254Z,12.50
2022-11-16T19:38:53.798Z,12.42
2022-11-16T19:41:22.858Z,12.39
2022-11-16T19:43:52.598Z,12.24
2022-11-16T19:46:21.707Z,12.04
2022-11-16T19:48:50.374Z,11.91
2022-11-16T19:51:20.360Z,11.91
2022-11-16T19:53:50.315Z,11.90
2022-11-16T19:56:20.197Z,11.87
2022-11-16T19:58:49.012Z,11.82
2022-11-16T20:01:19.070Z,11.93
2022-11-16T20:03:48.643Z,11.98
2022-11-16T20:06:18.091Z,12.01
2022-11-16T20:08:48.732Z,12.01
2022-11-16T20:11:20.352Z,12.11
2022-11-16T20:13:48.684Z,11.86
2022-11-16T20:16:17.705Z,11.93
2022-11-16T20:18:46.580Z,11.88
2022-11-16T20:21:18.582Z,11.92
2022-11-16T20:23:46.975Z,11.79
2022-11-16T20:26:15.609Z,11.76
2022-11-16T20:28:46.124Z,11.82
2022-11-16T20:31:15.864Z,11.82
2022-11-16T20:33:50.415Z,11.87
2022-11-16T20:36:19.144Z,11.86
2022-11-16T20:38:47.476Z,11.86
2022-11-16T20:41:17.523Z,11.83
2022-11-16T20:43:48.043Z,11.75
2022-11-16T20:46:17.913Z,11.64
2022-11-16T20:48:46.565Z,11.56
2022-11-16T20:51:16.995Z,11.49
2022-11-16T20:53:45.614Z,11.12
2022-11-16T20:56:14.600Z,11.23
2022-11-16T20:58:43.017Z,11.16
2022-11-16T21:01:14.857Z,11.12
2022-11-16T21:03:44.702Z,10.79
2022-11-16T21:06:13.518Z,10.68
2022-11-16T21:08:42.602Z,10.95
2022-11-16T21:11:12.058Z,10.98
2022-11-16T21:13:58.120Z,10.95
2022-11-16T21:16:27.764Z,11.03
2022-11-16T21:18:56.099Z,10.97
2022-11-16T21:21:25.422Z,10.85
2022-11-16T21:23:54.093Z,10.86
2022-11-16T21:26:24.116Z,10.65
2022-11-16T21:28:52.670Z,10.58
2022-11-16T21:31:22.798Z,10.50
2022-11-16T21:33:53.042Z,10.63
2022-11-16T21:36:22.706Z,10.64
2022-11-16T21:38:52.004Z,10.54
2022-11-16T21:41:21.884Z,10.58
2022-11-16T21:43:50.799Z,10.54
2022-11-16T21:46:21.689Z,10.61
2022-11-16T21:48:51.270Z,10.40
2022-11-16T21:51:24.844Z,10.47
2022-11-16T21:53:53.607Z,10.55
2022-11-16T21:56:23.271Z,10.60
2022-11-16T21:58:52.937Z,10.54
2022-11-16T22:01:21.996Z,10.45
2022-11-16T22:04:10.676Z,10.41
2022-11-16T22:06:57.856Z,10.40
2022-11-16T22:09:26.223Z,10.24
2022-11-16T22:11:54.524Z,10.23
2022-11-16T22:14:22.888Z,10.24
2022-11-16T22:16:51.227Z,10.27
2022-11-16T22:19:19.621Z,10.27
2022-11-16T22:21:49.382Z,10.45
2022-11-16T22:24:17.650Z,10.52
2022-11-16T22:26:46.121Z,10.64
2022-11-16T22:29:14.500Z,10.69
2022-11-16T22:31:42.825Z,10.75
2022-11-16T22:34:11.201Z,10.83
2022-11-16T22:36:39.500Z,10.94
2022-11-16T22:39:09.181Z,11.05
2022-11-16T22:41:37.501Z,11.02
2022-11-16T22:44:06.146Z,10.84
2022-11-16T22:46:34.498Z,10.75
2022-11-16T22:49:02.824Z,10.88
2022-11-16T22:51:31.744Z,10.75
2022-11-16T22:54:01.652Z,10.76
2022-11-16T22:56:32.798Z,10.52
2022-11-16T22:59:02.597Z,10.20
2022-11-16T23:01:30.921Z,10.44
2022-11-16T23:03:59.365Z,10.49
2022-11-16T23:06:27.761Z,10.51
2022-11-16T23:08:56.130Z,10.50
2022-11-16T23:11:43.577Z,10.53
2022-11-16T23:14:32.386Z,10.56
2022-11-16T23:17:00.969Z,10.53
2022-11-16T23:19:47.302Z,10.56
2022-11-16T23:22:34.983Z,10.60
2022-11-16T23:25:20.922Z,10.60
2022-11-16T23:27:55.938Z,10.66
2022-11-16T23:30:26.055Z,10.60
2022-11-16T23:32:54.709Z,10.37
2022-11-16T23:35:24.487Z,10.21
2022-11-16T23:37:54.381Z,10.23
2022-11-16T23:40:24.202Z,10.23
2022-11-16T23:43:11.303Z,10.25
2022-11-16T23:45:41.519Z,10.25
2022-11-16T23:48:10.670Z,10.26
2022-11-16T23:50:39.075Z,10.28
2022-11-16T23:53:08.421Z,10.18
2022-11-16T23:55:38.925Z,10.13
2022-11-16T23:58:07.423Z,10.05
